.
WxDataArchive / Data Records for 2013-04-09
2013-04-08 April 2013 2013-04-10

Data Records for Tuesday, 09 April 2013

Time	Temp	Chill	HIndex	Humid	Dewpt	 Wind 	HiWind	WindDir	Rain 	Barom 
-----	----	-----	------	-----	-----	------	------	-------	-----	----- 
00:00	53.5	53.5	53.5	71	44.3	0	0	---	0.00	29.973 
00:05	53.2	53.2	53.2	71	44.0	0	0	---	0.00	29.973 
00:10	52.9	52.9	52.9	72	44.1	0	0	---	0.00	29.973 
00:15	52.8	52.8	52.8	73	44.4	0	0	---	0.00	29.973 
00:20	52.5	52.5	52.5	73	44.1	0	0	---	0.00	29.973 
00:25	52.2	52.2	52.2	73	43.8	0	0	---	0.00	29.973 
00:30	51.9	51.9	51.9	74	43.9	0	0	---	0.00	29.979 
00:35	51.7	51.7	51.7	75	44.0	0	1	292	0.00	29.979 
00:40	51.6	51.6	51.6	76	44.3	0	1	292	0.00	29.979 
00:45	51.6	51.6	51.6	76	44.3	0	0	---	0.00	29.977 
00:50	51.6	51.6	51.6	76	44.3	0	0	---	0.00	29.977 
00:55	51.4	51.4	51.4	76	44.1	0	0	---	0.00	29.977 
01:00	51.1	51.1	51.1	77	44.1	0	0	---	0.00	29.980 
01:05	51.0	51.0	51.0	77	44.0	0	0	---	0.00	29.980 
01:10	50.8	50.8	50.8	77	43.9	0	0	---	0.00	29.980 
01:15	50.7	50.7	50.7	78	44.1	0	0	---	0.00	29.988 
01:20	50.7	50.7	50.7	78	44.1	0	0	---	0.00	29.988 
01:25	50.7	50.7	50.7	79	44.4	0	0	---	0.00	29.988 
01:30	50.7	50.7	50.7	79	44.4	0	0	---	0.00	29.989 
01:35	50.8	50.8	50.8	80	44.9	0	0	---	0.00	29.989 
01:40	50.8	50.8	50.8	80	44.9	0	0	---	0.00	29.989 
01:45	50.8	50.8	50.8	80	44.9	0	0	---	0.00	29.997 
01:50	50.7	50.7	50.7	80	44.8	0	0	---	0.00	29.997 
01:55	50.5	50.5	50.5	80	44.6	0	0	---	0.00	29.997 
02:00	50.4	50.4	50.4	80	44.5	0	0	---	0.00	29.997 
02:05	50.1	50.1	50.1	80	44.2	0	0	---	0.00	29.997 
02:10	49.9	49.9	49.9	80	44.0	0	0	---	0.00	29.997 
02:15	49.8	49.8	49.8	81	44.2	0	0	---	0.00	29.999 
02:20	49.6	49.6	49.6	81	44.0	0	0	---	0.00	29.999 
02:25	49.6	49.6	49.6	81	44.0	0	0	---	0.00	29.999 
02:30	49.6	49.6	49.6	82	44.3	0	0	---	0.00	30.003 
02:35	49.6	49.6	49.6	82	44.3	0	0	---	0.00	30.003 
02:40	49.6	49.6	49.6	82	44.3	0	0	---	0.00	30.003 
02:45	49.8	49.8	49.8	82	44.5	0	0	---	0.00	29.995 
02:50	49.8	49.8	49.8	82	44.5	0	0	---	0.00	29.995 
02:55	49.8	49.8	49.8	82	44.5	0	0	---	0.00	29.995 
03:00	49.8	49.8	49.8	82	44.5	0	0	---	0.00	29.993 
03:05	49.9	49.9	49.9	82	44.6	0	0	---	0.00	29.993 
03:10	49.9	49.9	49.9	82	44.6	0	0	---	0.00	29.993 
03:15	50.1	50.1	50.1	82	44.8	0	0	---	0.00	29.996 
03:20	50.2	50.2	50.2	82	44.9	0	0	---	0.00	29.996 
03:25	50.4	50.4	50.4	82	45.1	0	0	---	0.00	29.996 
03:30	50.5	50.5	50.5	81	44.9	0	0	---	0.00	29.999 
03:35	50.5	50.5	50.5	81	44.9	0	0	---	0.00	29.999 
03:40	50.7	50.7	50.7	81	45.1	0	0	---	0.00	29.999 
03:45	50.7	50.7	50.7	80	44.8	0	1	292	0.00	29.989 
03:50	50.7	50.7	50.7	80	44.8	0	2	292	0.00	29.989 
03:55	50.5	50.5	50.5	79	44.2	0	1	292	0.00	29.989 
04:00	50.5	50.5	50.5	79	44.2	0	1	292	0.00	29.990 
04:05	50.4	50.4	50.4	79	44.1	0	0	---	0.00	29.990 
04:10	50.2	50.2	50.2	79	43.9	0	1	292	0.00	29.990 
04:15	50.1	50.1	50.1	80	44.2	0	1	292	0.00	29.991 
04:20	50.1	50.1	50.1	80	44.2	0	2	292	0.00	29.991 
04:25	50.2	50.2	50.2	80	44.3	0	1	292	0.00	29.991 
04:30	50.2	50.2	50.2	79	43.9	0	2	292	0.00	29.994 
04:35	50.2	50.2	50.2	79	43.9	0	2	292	0.00	29.994 
04:40	50.2	50.2	50.2	79	43.9	0	1	292	0.00	29.994 
04:45	50.1	50.1	50.1	78	43.5	0	2	292	0.00	29.996 
04:50	50.2	50.2	50.2	78	43.6	0	1	292	0.00	29.996 
04:55	50.1	50.1	50.1	78	43.5	0	1	292	0.00	29.996 
05:00	50.1	50.1	50.1	77	43.2	0	1	292	0.00	30.002 
05:05	50.1	50.1	50.1	77	43.2	0	0	---	0.00	30.002 
05:10	49.9	49.9	49.9	77	43.0	0	2	292	0.00	30.002 
05:15	49.9	49.9	49.9	77	43.0	1	3	292	0.00	29.996 
05:20	49.8	49.8	49.8	77	42.9	1	3	292	0.00	29.996 
05:25	49.5	49.5	49.5	78	42.9	0	1	292	0.00	29.996 
05:30	49.2	49.2	49.2	78	42.6	0	1	292	0.00	29.997 
05:35	49.1	49.1	49.1	79	42.9	0	1	292	0.00	29.997 
05:40	48.9	48.9	48.9	79	42.7	0	2	292	0.00	29.997 
05:45	48.8	48.8	48.8	79	42.6	0	0	---	0.00	30.002 
05:50	48.8	48.8	48.8	80	42.9	0	0	---	0.00	30.002 
05:55	48.6	48.6	48.6	80	42.7	0	1	292	0.00	30.002 
06:00	48.6	48.6	48.6	80	42.7	0	0	---	0.00	30.003 
06:05	48.5	48.5	48.5	81	42.9	0	0	---	0.00	30.003 
06:10	48.3	48.3	48.3	81	42.7	0	0	---	0.00	30.003 
06:15	48.2	48.2	48.2	82	43.0	0	0	---	0.00	30.010 
06:20	48.2	48.2	48.2	82	43.0	1	3	315	0.00	30.010 
06:25	48.2	48.2	48.2	82	43.0	1	3	315	0.00	30.010 
06:30	48.0	48.0	48.0	82	42.8	0	2	315	0.00	30.006 
06:35	48.0	48.0	48.0	82	42.8	1	2	315	0.00	30.006 
06:40	48.0	48.0	48.0	82	42.8	0	2	315	0.00	30.006 
06:45	47.9	47.9	47.9	82	42.7	0	2	315	0.00	30.005 
06:50	47.9	47.9	47.9	82	42.7	1	4	68	0.00	30.005 
06:55	47.9	47.9	47.9	82	42.7	1	3	68	0.00	30.005 
07:00	47.9	47.9	47.9	82	42.7	1	4	68	0.00	30.006 
07:05	47.7	47.7	47.7	82	42.5	2	4	68	0.00	30.006 
07:10	47.6	47.6	47.6	82	42.4	2	5	90	0.00	30.006 
07:15	47.6	47.6	47.6	82	42.4	2	5	90	0.00	30.002 
07:20	47.6	47.6	47.6	81	42.1	3	6	90	0.00	30.002 
07:25	47.4	47.4	47.4	81	41.9	2	6	90	0.00	30.002 
07:30	47.4	47.4	47.4	81	41.9	1	4	90	0.00	30.015 
07:35	47.4	47.4	47.4	81	41.9	1	3	90	0.00	30.015 
07:40	47.4	47.4	47.4	81	41.9	2	4	90	0.00	30.015 
07:45	47.4	47.4	47.4	81	41.9	2	5	90	0.00	30.022 
07:50	47.4	47.4	47.4	82	42.2	2	5	90	0.00	30.022 
07:55	47.6	47.6	47.6	81	42.1	2	5	90	0.00	30.022 
08:00	47.7	47.7	47.7	81	42.2	2	4	90	0.00	30.020 
08:05	47.9	47.9	47.9	81	42.4	2	5	90	0.00	30.020 
08:10	48.2	48.2	48.2	81	42.6	3	6	90	0.00	30.020 
08:15	48.5	48.5	48.5	81	42.9	1	4	90	0.00	30.027 
08:20	48.6	48.6	48.6	81	43.0	2	5	90	0.00	30.027 
08:25	48.8	48.8	48.8	81	43.2	2	6	90	0.00	30.027 
08:30	48.9	48.9	48.9	80	43.0	3	7	90	0.00	30.016 
08:35	49.2	47.9	49.2	80	43.3	4	8	90	0.00	30.016 
08:40	49.5	49.5	49.5	80	43.6	3	9	112	0.00	30.016 
08:45	50.1	50.1	50.1	79	43.8	3	7	90	0.00	30.014 
08:50	50.5	50.5	50.5	78	43.9	3	7	90	0.00	30.014 
08:55	50.8	50.8	50.8	77	43.9	4	6	90	0.00	30.014 
09:00	51.1	51.1	51.1	77	44.1	4	6	90	0.00	30.012 
09:05	51.4	51.4	51.4	75	43.7	4	9	90	0.00	30.012 
09:10	51.9	51.9	51.9	75	44.2	4	8	90	0.00	30.012 
09:15	52.0	52.0	52.0	75	44.3	3	5	112	0.00	30.015 
09:20	52.3	52.3	52.3	74	44.3	3	10	90	0.00	30.015 
09:25	52.6	52.6	52.6	74	44.6	3	7	68	0.00	30.015 
09:30	53.1	53.1	53.1	73	44.7	4	6	90	0.00	30.015 
09:35	53.3	53.3	53.3	73	44.9	3	6	90	0.00	30.015 
09:40	53.9	53.9	53.9	72	45.1	3	6	90	0.00	30.015 
09:45	54.4	54.4	54.4	71	45.2	4	8	90	0.00	30.010 
09:50	54.7	54.7	54.7	70	45.1	3	5	112	0.00	30.010 
09:55	54.8	54.8	54.8	70	45.2	4	10	90	0.00	30.010 
10:00	55.1	55.1	55.1	69	45.1	4	7	90	0.00	29.999 
10:05	55.4	55.4	55.4	68	45.0	5	11	90	0.00	29.999 
10:10	55.7	55.7	55.7	68	45.3	3	7	90	0.00	29.999 
10:15	56.2	56.2	56.2	67	45.4	5	11	112	0.00	29.994 
10:20	56.6	56.6	56.6	66	45.4	3	6	90	0.00	29.994 
10:25	57.0	57.0	57.0	65	45.4	3	10	90	0.00	29.994 
10:30	57.6	57.6	57.6	64	45.5	4	7	90	0.00	29.979 
10:35	57.8	57.8	57.8	64	45.7	3	8	90	0.00	29.979 
10:40	58.0	58.0	58.0	63	45.5	4	9	90	0.00	29.979 
10:45	58.1	58.1	58.1	63	45.6	3	6	90	0.00	29.975 
10:50	58.3	58.3	58.3	63	45.8	5	10	90	0.00	29.975 
10:55	58.4	58.4	58.4	64	46.3	4	7	90	0.00	29.975 
11:00	58.7	58.7	58.7	63	46.1	4	8	90	0.00	29.966 
11:05	59.0	59.0	59.0	64	46.8	3	9	90	0.00	29.966 
11:10	59.5	59.5	59.5	64	47.3	2	5	90	0.00	29.966 
11:15	59.9	59.9	59.9	64	47.7	1	4	90	0.00	29.968 
11:20	60.2	60.2	60.2	64	48.0	3	7	90	0.00	29.968 
11:25	60.4	60.4	60.4	63	47.7	4	7	112	0.00	29.968 
11:30	60.7	60.7	60.7	65	48.9	2	5	112	0.00	29.963 
11:35	60.7	60.7	60.7	64	48.4	3	8	90	0.00	29.963 
11:40	60.9	60.9	60.9	65	49.1	2	6	90	0.00	29.963 
11:45	61.0	61.0	61.0	65	49.1	3	7	90	0.00	29.963 
11:50	61.5	61.5	61.5	64	49.2	2	4	90	0.00	29.963 
11:55	62.0	62.0	62.0	65	50.1	3	8	90	0.00	29.963 
12:00	62.4	62.4	62.4	65	50.5	1	4	112	0.00	29.960 
12:05	62.9	62.9	62.9	64	50.5	2	4	68	0.00	29.960 
12:10	63.4	63.4	63.4	64	51.0	1	4	90	0.00	29.960 
12:15	63.9	63.9	63.9	63	51.1	2	5	90	0.00	29.950 
12:20	64.3	64.3	64.3	64	51.9	1	4	112	0.00	29.950 
12:25	64.7	64.7	64.7	64	52.2	2	4	112	0.00	29.950 
12:30	65.0	65.0	65.0	64	52.5	2	5	112	0.00	29.933 
12:35	65.5	65.5	65.5	64	53.0	2	7	112	0.00	29.933 
12:40	66.4	66.4	66.4	64	53.8	1	4	90	0.00	29.933 
12:45	67.4	67.4	67.4	62	53.9	2	4	90	0.00	29.915 
12:50	68.4	68.4	68.4	62	54.9	2	7	90	0.00	29.915 
12:55	69.1	69.1	69.1	60	54.6	2	6	90	0.00	29.915 
13:00	69.6	69.6	69.6	59	54.6	1	4	90	0.00	29.907 
13:05	70.4	70.4	70.4	58	54.9	2	5	90	0.00	29.907 
13:10	71.3	71.3	71.3	60	56.7	1	4	90	0.00	29.907 
13:15	72.3	72.3	72.3	60	57.6	1	4	90	0.00	29.895 
13:20	73.0	73.0	73.0	57	56.9	2	5	90	0.00	29.895 
13:25	73.5	73.5	73.5	56	56.8	2	4	90	0.00	29.895 
13:30	74.2	74.2	74.2	55	57.0	1	5	90	0.00	29.873 
13:35	74.7	74.7	74.7	56	57.9	1	4	90	0.00	29.873 
13:40	75.1	75.1	77.6	55	57.8	2	6	90	0.00	29.873 
13:45	75.8	75.8	78.0	54	57.9	3	11	90	0.00	29.854 
13:50	75.8	75.8	78.0	53	57.4	4	12	90	0.00	29.854 
13:55	76.1	76.1	78.1	55	58.7	2	5	270	0.00	29.854 
14:00	76.8	76.8	78.6	54	58.9	2	10	248	0.00	29.841 
14:05	77.6	77.6	79.0	50	57.5	3	9	248	0.00	29.841 
14:10	78.1	78.1	79.3	50	57.9	3	9	270	0.00	29.841 
14:15	78.3	78.3	79.3	48	57.0	3	9	248	0.00	29.839 
14:20	78.5	78.5	79.5	48	57.2	3	6	248	0.00	29.839 
14:25	78.5	78.5	79.4	47	56.6	3	11	248	0.00	29.839 
14:30	78.6	78.6	79.4	46	56.1	3	8	248	0.00	29.833 
14:35	78.8	78.8	79.6	47	56.8	3	11	248	0.00	29.833 
14:40	79.0	79.0	79.7	46	56.4	2	10	248	0.00	29.833 
14:45	79.6	79.6	79.9	43	55.1	5	13	248	0.00	29.828 
14:50	80.3	80.3	80.3	42	55.1	4	10	248	0.00	29.828 
14:55	80.1	80.1	80.3	43	55.6	4	10	270	0.00	29.828 
15:00	79.6	79.6	80.0	44	55.7	3	12	248	0.00	29.831 
15:05	78.8	78.8	79.4	44	55.0	2	9	248	0.00	29.831 
15:10	79.2	79.2	79.7	44	55.4	2	6	248	0.00	29.831 
15:15	79.4	79.4	79.8	43	54.9	4	12	248	0.00	29.826 
15:20	79.4	79.4	79.8	44	55.6	4	10	248	0.00	29.826 
15:25	79.8	79.8	80.0	43	55.3	4	11	248	0.00	29.826 
15:30	80.1	80.1	80.1	41	54.2	5	13	248	0.00	29.828 
15:35	80.1	80.1	80.2	42	54.9	4	10	248	0.00	29.828 
15:40	79.9	79.9	80.1	43	55.4	3	7	248	0.00	29.828 
15:45	80.5	80.5	80.5	42	55.3	3	7	248	0.00	29.828 
15:50	80.3	80.3	80.1	40	53.8	4	15	248	0.00	29.828 
15:55	80.3	80.3	80.2	41	54.4	4	9	248	0.00	29.828 
16:00	80.3	80.3	80.1	40	53.8	4	11	248	0.00	29.834 
16:05	79.9	79.9	79.9	40	53.4	5	17	248	0.00	29.834 
16:10	79.9	79.9	79.9	40	53.4	7	12	248	0.00	29.834 
16:15	79.9	79.9	79.9	41	54.1	3	10	248	0.00	29.835 
16:20	79.8	79.8	79.9	41	54.0	5	14	248	0.00	29.835 
16:25	79.6	79.6	79.7	41	53.8	4	12	248	0.00	29.835 
16:30	79.4	79.4	79.8	43	54.9	4	14	248	0.00	29.825 
16:35	79.4	79.4	79.6	41	53.6	6	14	248	0.00	29.825 
16:40	79.4	79.4	79.7	42	54.3	5	12	248	0.00	29.825 
16:45	79.4	79.4	79.8	43	54.9	3	10	248	0.00	29.830 
16:50	79.4	79.4	79.8	43	54.9	3	6	248	0.00	29.830 
16:55	79.4	79.4	79.6	41	53.6	4	10	248	0.00	29.830 
17:00	79.4	79.4	79.5	40	52.9	5	14	248	0.00	29.827 
17:05	79.2	79.2	79.4	40	52.8	4	11	248	0.00	29.827 
17:10	78.8	78.8	79.2	40	52.4	5	9	248	0.00	29.827 
17:15	78.6	78.6	79.1	41	52.9	4	13	270	0.00	29.832 
17:20	78.3	78.3	78.9	40	52.0	6	14	248	0.00	29.832 
17:25	78.1	78.1	78.8	40	51.8	4	13	248	0.00	29.832 
17:30	78.1	78.1	78.8	41	52.5	3	7	248	0.00	29.829 
17:35	77.9	77.9	78.7	40	51.6	4	11	248	0.00	29.829 
17:40	77.9	77.9	78.7	41	52.3	4	9	248	0.00	29.829 
17:45	77.9	77.9	78.7	41	52.3	4	11	248	0.00	29.827 
17:50	77.9	77.9	78.8	42	52.9	3	9	248	0.00	29.827 
17:55	78.1	78.1	78.9	42	53.1	3	8	248	0.00	29.827 
18:00	78.1	78.1	78.9	43	53.8	2	11	202	0.00	29.828 
18:05	77.7	77.7	78.7	43	53.4	2	5	248	0.00	29.828 
18:10	77.7	77.7	78.7	43	53.4	3	9	248	0.00	29.828 
18:15	77.6	77.6	78.6	42	52.7	4	10	248	0.00	29.832 
18:20	77.4	77.4	78.6	43	53.1	2	10	248	0.00	29.832 
18:25	77.4	77.4	78.6	43	53.1	3	7	248	0.00	29.832 
18:30	77.2	77.2	78.5	43	52.9	3	7	248	0.00	29.843 
18:35	77.2	77.2	78.5	43	52.9	3	6	248	0.00	29.843 
18:40	77.2	77.2	78.5	43	52.9	3	7	248	0.00	29.843 
18:45	77.2	77.2	78.4	42	52.3	3	9	248	0.00	29.845 
18:50	77.2	77.2	78.4	42	52.3	3	13	248	0.00	29.845 
18:55	77.2	77.2	78.4	42	52.3	3	6	248	0.00	29.845 
19:00	77.0	77.0	78.4	43	52.8	2	9	248	0.00	29.855 
19:05	76.8	76.8	78.3	43	52.6	3	7	248	0.00	29.855 
19:10	76.7	76.7	78.2	43	52.5	4	14	248	0.00	29.855 
19:15	76.5	76.5	78.2	44	52.9	2	5	248	0.00	29.858 
19:20	76.3	76.3	78.1	44	52.8	3	7	248	0.00	29.858 
19:25	76.1	76.1	78.0	44	52.6	3	10	248	0.00	29.858 
19:30	76.0	76.0	78.0	45	53.1	2	7	248	0.00	29.859 
19:35	75.8	75.8	77.9	45	52.9	1	6	248	0.00	29.859 
19:40	75.6	75.6	77.8	46	53.3	3	6	248	0.00	29.859 
19:45	75.4	75.4	77.8	46	53.2	1	5	248	0.00	29.863 
19:50	75.3	75.3	77.7	46	53.1	2	6	248	0.00	29.863 
19:55	75.3	75.3	77.7	46	53.1	2	5	248	0.00	29.863 
20:00	75.1	75.1	77.7	47	53.5	1	4	248	0.00	29.863 
20:05	74.9	74.9	74.9	47	53.3	1	3	248	0.00	29.863 
20:10	74.7	74.7	74.7	47	53.1	1	4	248	0.00	29.863 
20:15	74.7	74.7	74.7	48	53.7	2	4	248	0.00	29.863 
20:20	74.6	74.6	74.6	48	53.6	1	5	225	0.00	29.863 
20:25	74.6	74.6	74.6	49	54.2	1	5	248	0.00	29.863 
20:30	74.4	74.4	74.4	50	54.5	2	9	270	0.00	29.871 
20:35	74.4	74.4	74.4	51	55.1	3	6	248	0.00	29.871 
20:40	74.4	74.4	74.4	51	55.1	2	4	225	0.00	29.871 
20:45	74.2	74.2	74.2	51	54.9	1	4	248	0.00	29.875 
20:50	74.0	74.0	74.0	52	55.2	1	3	248	0.00	29.875 
20:55	73.9	73.9	73.9	53	55.7	1	4	248	0.00	29.875 
21:00	73.9	73.9	73.9	52	55.1	2	10	248	0.00	29.881 
21:05	73.9	73.9	73.9	54	56.2	3	7	248	0.00	29.881 
21:10	73.7	73.7	73.7	55	56.5	4	13	270	0.00	29.881 
21:15	73.2	73.2	73.2	57	57.0	4	9	248	0.00	29.885 
21:20	72.8	72.8	72.8	58	57.1	2	6	248	0.00	29.885 
21:25	72.7	72.7	72.7	58	57.1	1	3	248	0.00	29.885 
21:30	72.5	72.5	72.5	59	57.3	1	5	248	0.00	29.885 
21:35	72.5	72.5	72.5	58	56.9	1	4	248	0.00	29.885 
21:40	72.3	72.3	72.3	59	57.2	1	4	248	0.00	29.885 
21:45	72.3	72.3	72.3	59	57.2	1	4	248	0.00	29.887 
21:50	72.3	72.3	72.3	59	57.2	2	7	248	0.00	29.887 
21:55	72.3	72.3	72.3	59	57.2	1	6	248	0.00	29.887 
22:00	72.3	72.3	72.3	59	57.2	1	4	248	0.00	29.889 
22:05	72.3	72.3	72.3	59	57.2	1	3	248	0.00	29.889 
22:10	72.3	72.3	72.3	59	57.2	1	4	292	0.00	29.889 
22:15	72.1	72.1	72.1	60	57.4	2	5	248	0.00	29.887 
22:20	72.1	72.1	72.1	60	57.4	2	5	248	0.00	29.887 
22:25	72.0	72.0	72.0	60	57.3	1	5	248	0.00	29.887 
22:30	72.0	72.0	72.0	61	57.8	1	3	248	0.00	29.884 
22:35	71.8	71.8	71.8	61	57.6	1	2	248	0.00	29.884 
22:40	71.6	71.6	71.6	61	57.4	0	2	248	0.00	29.884 
22:45	71.5	71.5	71.5	62	57.8	0	2	248	0.00	29.884 
22:50	71.3	71.3	71.3	62	57.6	0	2	248	0.00	29.884 
22:55	71.3	71.3	71.3	62	57.6	0	3	248	0.00	29.884 
23:00	71.1	71.1	71.1	62	57.4	0	2	248	0.00	29.882 
23:05	71.1	71.1	71.1	63	57.9	0	1	248	0.00	29.882 
23:10	70.9	70.9	70.9	63	57.7	0	1	248	0.00	29.882 
23:15	70.9	70.9	70.9	63	57.7	0	2	248	0.00	29.877 
23:20	70.8	70.8	70.8	64	58.0	0	1	248	0.00	29.877 
23:25	70.8	70.8	70.8	64	58.0	0	3	248	0.00	29.877 
23:30	70.6	70.6	70.6	64	57.8	0	1	248	0.00	29.872 
23:35	70.6	70.6	70.6	64	57.8	0	2	248	0.00	29.872 
23:40	70.4	70.4	70.4	65	58.1	0	1	248	0.00	29.872 
23:45	70.3	70.3	70.3	65	58.0	0	1	248	0.00	29.868 
23:50	70.3	70.3	70.3	65	58.0	0	1	248	0.00	29.868 
23:55	70.1	70.1	70.1	65	57.8	0	0	---	0.00	29.868 

CoCoRaHS
IN-AL-39
A2 Web Hosting
Creative Commons License
GoDaddy
search engine by freefind advanced

loaded 2018-11-17 05:37:10 • last modified 2010-11-18 10:43:29
Privacy PolicyDisclaimer
• wx.awcolley.com is powered by PmWiki v.2002016 •
• all content (unless otherwise noted) © 2018 A W Colley